地図

経路データ

SID SEASON NUMBER BASIN SUBBASIN NAME ISO_TIME NATURE LAT LON WMO_WIND WMO_PRES WMO_AGENCY TRACK_TYPE DIST2LAND LANDFALL IFLAG USA_AGENCY USA_ATCF_ID USA_LAT USA_LON USA_RECORD USA_STATUS USA_WIND USA_PRES USA_SSHS USA_R34_NE USA_R34_SE USA_R34_SW USA_R34_NW USA_R50_NE USA_R50_SE USA_R50_SW USA_R50_NW USA_R64_NE USA_R64_SE USA_R64_SW USA_R64_NW USA_POCI USA_ROCI USA_RMW USA_EYE TOKYO_LAT TOKYO_LON TOKYO_GRADE TOKYO_WIND TOKYO_PRES TOKYO_R50_DIR TOKYO_R50_LONG TOKYO_R50_SHORT TOKYO_R30_DIR TOKYO_R30_LONG TOKYO_R30_SHORT TOKYO_LAND CMA_LAT CMA_LON CMA_CAT CMA_WIND CMA_PRES HKO_LAT HKO_LON HKO_CAT HKO_WIND HKO_PRES NEWDELHI_LAT NEWDELHI_LON NEWDELHI_GRADE NEWDELHI_WIND NEWDELHI_PRES NEWDELHI_CI NEWDELHI_DP NEWDELHI_POCI REUNION_LAT REUNION_LON REUNION_TYPE REUNION_WIND REUNION_PRES REUNION_TNUM REUNION_CI REUNION_RMW REUNION_R34_NE REUNION_R34_SE REUNION_R34_SW REUNION_R34_NW REUNION_R50_NE REUNION_R50_SE REUNION_R50_SW REUNION_R50_NW REUNION_R64_NE REUNION_R64_SE REUNION_R64_SW REUNION_R64_NW BOM_LAT BOM_LON BOM_TYPE BOM_WIND BOM_PRES BOM_TNUM BOM_CI BOM_RMW BOM_R34_NE BOM_R34_SE BOM_R34_SW BOM_R34_NW BOM_R50_NE BOM_R50_SE BOM_R50_SW BOM_R50_NW BOM_R64_NE BOM_R64_SE BOM_R64_SW BOM_R64_NW BOM_ROCI BOM_POCI BOM_EYE BOM_POS_METHOD BOM_PRES_METHOD NADI_LAT NADI_LON NADI_CAT NADI_WIND NADI_PRES WELLINGTON_LAT WELLINGTON_LON WELLINGTON_WIND WELLINGTON_PRES DS824_LAT DS824_LON DS824_STAGE DS824_WIND DS824_PRES TD9636_LAT TD9636_LON TD9636_STAGE TD9636_WIND TD9636_PRES TD9635_LAT TD9635_LON TD9635_WIND TD9635_PRES TD9635_ROCI NEUMANN_LAT NEUMANN_LON NEUMANN_CLASS NEUMANN_WIND NEUMANN_PRES MLC_LAT MLC_LON MLC_CLASS MLC_WIND MLC_PRES USA_GUST BOM_GUST BOM_GUST_PER REUNION_GUST REUNION_GUST_PER USA_SEAHGT USA_SEARAD_NE USA_SEARAD_SE USA_SEARAD_SW USA_SEARAD_NW STORM_SPEED STORM_DIR
2000273N16277 2000 91 NA CS KEITH 2000-09-28 18:00:00 TS 16.1000 -82.9000 25 1005 hurdat_atl main 104 95 O_____________ hurdat_atl AL152000 16.1000 -82.9000 TD 25 1005 -1 4 275
2000273N16277 2000 91 NA CS KEITH 2000-09-28 21:00:00 TS 16.1176 -83.1125 main 95 92 P_____________ AL152000 16.1176 -83.1125 TD 25 1004 -1 4 285
2000273N16277 2000 91 NA CS KEITH 2000-09-29 00:00:00 TS 16.2000 -83.3000 25 1004 hurdat_atl main 99 99 O_____________ hurdat_atl AL152000 16.2000 -83.3000 TD 25 1004 -1 4 309
2000273N16277 2000 91 NA CS KEITH 2000-09-29 03:00:00 TS 16.3850 -83.4500 main 110 104 P_____________ AL152000 16.3850 -83.4500 TD 27 1003 -1 5 324
2000273N16277 2000 91 NA CS KEITH 2000-09-29 06:00:00 TS 16.6000 -83.6000 30 1003 hurdat_atl main 116 114 O_____________ hurdat_atl AL152000 16.6000 -83.6000 TD 30 1003 -1 5 320
2000273N16277 2000 91 NA CS KEITH 2000-09-29 09:00:00 TS 16.7424 -83.7627 main 114 114 P_____________ AL152000 16.7424 -83.7627 TD 30 1002 -1 5 308
2000273N16277 2000 91 NA CS KEITH 2000-09-29 12:00:00 TS 16.9000 -84.0000 30 1002 hurdat_atl main 127 124 O_____________ hurdat_atl AL152000 16.9000 -84.0000 TD 30 1002 -1 7 304
2000273N16277 2000 91 NA CS KEITH 2000-09-29 15:00:00 TS 17.1502 -84.3848 main 148 147 P_____________ AL152000 17.1502 -84.3848 TD 35 1001 0 9 303
2000273N16277 2000 91 NA CS KEITH 2000-09-29 18:00:00 TS 17.4000 -84.8000 40 1000 hurdat_atl main 167 167 O_____________ hurdat_atl AL152000 17.4000 -84.8000 TS 40 1000 0 8 301
2000273N16277 2000 91 NA CS KEITH 2000-09-29 21:00:00 TS 17.5724 -85.1151 main 190 190 P_____________ AL152000 17.5724 -85.1151 TS 42 996 0 6 298
2000273N16277 2000 91 NA CS KEITH 2000-09-30 00:00:00 TS 17.7000 -85.4000 45 993 hurdat_atl main 201 201 O_____________ hurdat_atl AL152000 17.7000 -85.4000 TS 45 993 0 6 294
2000273N16277 2000 91 NA CS KEITH 2000-09-30 03:00:00 TS 17.8225 -85.7150 main 212 193 P_____________ AL152000 17.8225 -85.7150 TS 50 990 0 6 289
2000273N16277 2000 91 NA CS KEITH 2000-09-30 06:00:00 TS 17.9000 -86.0000 55 987 hurdat_atl main 193 172 O_____________ hurdat_atl AL152000 17.9000 -86.0000 TS 55 987 0 5 281
2000273N16277 2000 91 NA CS KEITH 2000-09-30 09:00:00 TS 17.9149 -86.2226 main 172 151 P_____________ AL152000 17.9149 -86.2226 TS 60 984 0 4 270
2000273N16277 2000 91 NA CS KEITH 2000-09-30 12:00:00 TS 17.9000 -86.4000 65 982 hurdat_atl main 151 131 O_____________ hurdat_atl AL152000 17.9000 -86.4000 HU 65 982 1 3 267
2000273N16277 2000 91 NA CS KEITH 2000-09-30 15:00:00 TS 17.9000 -86.5650 main 131 121 P_____________ AL152000 17.9000 -86.5650 HU 70 979 1 3 270
2000273N16277 2000 91 NA CS KEITH 2000-09-30 18:00:00 TS 17.9000 -86.7000 75 977 hurdat_atl main 121 110 O_____________ hurdat_atl AL152000 17.9000 -86.7000 HU 75 977 1 2 270
2000273N16277 2000 91 NA CS KEITH 2000-09-30 21:00:00 TS 17.9000 -86.8000 main 110 100 P_____________ AL152000 17.9000 -86.8000 HU 87 966 2 2 270
2000273N16277 2000 91 NA CS KEITH 2000-10-01 00:00:00 TS 17.9000 -86.9000 100 955 hurdat_atl main 100 91 O_____________ hurdat_atl AL152000 17.9000 -86.9000 HU 100 955 3 2 270
2000273N16277 2000 91 NA CS KEITH 2000-10-01 03:00:00 TS 17.9000 -87.0035 main 91 71 P_____________ AL152000 17.9000 -87.0035 HU 110 948 3 3 270
2000273N16277 2000 91 NA CS KEITH 2000-10-01 06:00:00 TS 17.9000 -87.2000 120 941 hurdat_atl main 71 62 O_____________ hurdat_atl AL152000 17.9000 -87.2000 HU 120 941 4 4 270
2000273N16277 2000 91 NA CS KEITH 2000-10-01 07:00:00 TS 17.9000 -87.3000 120 939 hurdat_atl main 62 53 O_____________ hurdat_atl AL152000 17.9000 -87.3000 I HU 120 939 4 4 270
2000273N16277 2000 91 NA CS KEITH 2000-10-01 09:00:00 TS 17.9000 -87.3900 main 53 53 P_____________ AL152000 17.9000 -87.3900 HU 118 940 4 1 270
2000273N16277 2000 91 NA CS KEITH 2000-10-01 12:00:00 TS 17.9000 -87.4000 115 944 hurdat_atl main 53 46 O_____________ hurdat_atl AL152000 17.9000 -87.4000 HU 115 944 4 1 273
2000273N16277 2000 91 NA CS KEITH 2000-10-01 15:00:00 TS 17.9073 -87.5425 main 46 35 P_____________ AL152000 17.9073 -87.5425 HU 112 947 3 3 270
2000273N16277 2000 91 NA CS KEITH 2000-10-01 18:00:00 TS 17.9000 -87.7000 110 950 hurdat_atl main 35 33 O_____________ hurdat_atl AL152000 17.9000 -87.7000 HU 110 950 3 3 261
2000273N16277 2000 91 NA CS KEITH 2000-10-01 21:00:00 TS 17.8650 -87.8300 main 33 30 P_____________ AL152000 17.8650 -87.8300 HU 105 954 3 2 242
2000273N16277 2000 91 NA CS KEITH 2000-10-02 00:00:00 TS 17.8000 -87.9000 100 959 hurdat_atl main 33 33 O_____________ hurdat_atl AL152000 17.8000 -87.9000 HU 100 959 3 2 194
2000273N16277 2000 91 NA CS KEITH 2000-10-02 03:00:00 TS 17.6850 -87.8650 main 38 38 P_____________ AL152000 17.6850 -87.8650 HU 90 966 2 2 153
2000273N16277 2000 91 NA CS KEITH 2000-10-02 06:00:00 TS 17.6000 -87.8000 80 974 hurdat_atl main 43 43 O_____________ hurdat_atl AL152000 17.6000 -87.8000 HU 80 974 1 1 121
2000273N16277 2000 91 NA CS KEITH 2000-10-02 09:00:00 TS 17.6350 -87.7850 main 43 43 P_____________ AL152000 17.6350 -87.7850 HU 75 977 1 1 0
2000273N16277 2000 91 NA CS KEITH 2000-10-02 12:00:00 TS 17.7000 -87.8000 70 980 hurdat_atl main 47 47 O_____________ hurdat_atl AL152000 17.7000 -87.8000 HU 70 980 1 1 312
2000273N16277 2000 91 NA CS KEITH 2000-10-02 15:00:00 TS 17.6876 -87.8411 main 47 38 P_____________ AL152000 17.6876 -87.8411 HU 67 983 1 1 270
2000273N16277 2000 91 NA CS KEITH 2000-10-02 18:00:00 TS 17.7000 -87.9000 65 987 hurdat_atl main 38 23 O_____________ hurdat_atl AL152000 17.7000 -87.9000 HU 65 987 1 2 320
2000273N16277 2000 91 NA CS KEITH 2000-10-02 21:00:00 TS 17.8395 -87.9734 main 23 21 P_____________ AL152000 17.8395 -87.9734 HU 65 987 1 3 333
2000273N16277 2000 91 NA CS KEITH 2000-10-02 23:00:00 TS 17.9000 -88.0000 65 988 hurdat_atl main 21 21 O_____________ hurdat_atl AL152000 17.9000 -88.0000 L HU 65 988 1 1 0
2000273N16277 2000 91 NA CS KEITH 2000-10-03 00:00:00 TS 17.9000 -88.0000 60 989 hurdat_atl main 21 0 O_____________ hurdat_atl AL152000 17.9000 -88.0000 TS 60 989 0 3 270
2000273N16277 2000 91 NA CS KEITH 2000-10-03 03:00:00 TS 17.9000 -88.2000 60 990 hurdat_atl main 0 0 O_____________ hurdat_atl AL152000 17.9000 -88.2000 L TS 60 990 0 4 285
2000273N16277 2000 91 NA NA KEITH 2000-10-03 06:00:00 TS 18.0000 -88.4000 45 990 hurdat_atl main 0 0 O_____________ hurdat_atl AL152000 18.0000 -88.4000 TS 45 990 0 4 304
2000273N16277 2000 91 NA NA KEITH 2000-10-03 09:00:00 TS 18.1397 -88.5796 main 0 0 P_____________ AL152000 18.1397 -88.5796 TS 37 992 0 5 308
2000273N16277 2000 91 NA NA KEITH 2000-10-03 12:00:00 TS 18.3000 -88.8000 30 995 hurdat_atl main 0 0 O_____________ hurdat_atl AL152000 18.3000 -88.8000 TD 30 995 -1 6 301
2000273N16277 2000 91 NA NA KEITH 2000-10-03 15:00:00 TS 18.4424 -89.1126 main 0 0 P_____________ AL152000 18.4424 -89.1126 TD 30 996 -1 7 294
2000273N16277 2000 91 NA NA KEITH 2000-10-03 18:00:00 TS 18.6000 -89.5000 30 998 hurdat_atl main 0 0 O_____________ hurdat_atl AL152000 18.6000 -89.5000 TD 30 998 -1 8 294
2000273N16277 2000 91 NA NA KEITH 2000-10-03 21:00:00 TS 18.7849 -89.9276 main 0 0 P_____________ AL152000 18.7849 -89.9276 TD 27 999 -1 9 295
2000273N16277 2000 91 NA NA KEITH 2000-10-04 00:00:00 TS 19.0000 -90.4000 25 1000 hurdat_atl main 0 0 O_____________ hurdat_atl AL152000 19.0000 -90.4000 TD 25 1000 -1 10 297
2000273N16277 2000 91 NA GM KEITH 2000-10-04 03:00:00 TS 19.2499 -90.8850 main 0 0 P_____________ AL152000 19.2499 -90.8850 TD 27 1000 -1 11 298
2000273N16277 2000 91 NA GM KEITH 2000-10-04 06:00:00 TS 19.5000 -91.4000 30 1000 hurdat_atl main 53 53 O_____________ hurdat_atl AL152000 19.5000 -91.4000 TD 30 1000 -1 11 294
2000273N16277 2000 91 NA GM KEITH 2000-10-04 09:00:00 TS 19.7075 -91.9502 main 103 103 P_____________ AL152000 19.7075 -91.9502 TD 32 999 -1 11 291
2000273N16277 2000 91 NA GM KEITH 2000-10-04 12:00:00 TS 19.9000 -92.5000 35 999 hurdat_atl main 145 145 O_____________ hurdat_atl AL152000 19.9000 -92.5000 TS 35 999 0 11 292
2000273N16277 2000 91 NA GM KEITH 2000-10-04 15:00:00 TS 20.0996 -92.9853 main 170 170 P_____________ AL152000 20.0996 -92.9853 TS 37 997 0 10 293
2000273N16277 2000 91 NA GM KEITH 2000-10-04 18:00:00 TS 20.3000 -93.5000 40 996 hurdat_atl main 207 207 O_____________ hurdat_atl AL152000 20.3000 -93.5000 TS 40 996 0 11 290
2000273N16277 2000 91 NA GM KEITH 2000-10-04 21:00:00 TS 20.4925 -94.1277 main 231 189 P_____________ AL152000 20.4925 -94.1277 TS 50 992 0 13 288
2000273N16277 2000 91 NA GM KEITH 2000-10-05 00:00:00 TS 20.7000 -94.8000 60 988 hurdat_atl main 189 152 O_____________ hurdat_atl AL152000 20.7000 -94.8000 TS 60 988 0 13 289
2000273N16277 2000 91 NA GM KEITH 2000-10-05 03:00:00 TS 20.9351 -95.4800 main 144 121 P_____________ AL152000 20.9351 -95.4800 TS 62 987 0 13 292
2000273N16277 2000 91 NA GM KEITH 2000-10-05 06:00:00 TS 21.2000 -96.1000 65 987 hurdat_atl main 121 73 O_____________ hurdat_atl AL152000 21.2000 -96.1000 HU 65 987 1 12 298
2000273N16277 2000 91 NA GM KEITH 2000-10-05 09:00:00 TS 21.4771 -96.5804 main 73 38 P_____________ AL152000 21.4771 -96.5804 HU 70 985 1 10 306
2000273N16277 2000 91 NA GM KEITH 2000-10-05 12:00:00 TS 21.8000 -97.0000 75 983 hurdat_atl main 38 30 O_____________ hurdat_atl AL152000 21.8000 -97.0000 HU 75 983 1 11 312
2000273N16277 2000 91 NA GM KEITH 2000-10-05 15:00:00 TS 22.1997 -97.4351 main 38 0 P_____________ AL152000 22.1997 -97.4351 HU 77 981 1 12 314
2000273N16277 2000 91 NA NA KEITH 2000-10-05 18:00:00 TS 22.6000 -97.9000 80 980 hurdat_atl main 0 0 O_____________ hurdat_atl AL152000 22.6000 -97.9000 L HU 80 980 1 12 308
2000273N16277 2000 91 NA NA KEITH 2000-10-05 21:00:00 TS 22.9375 -98.4425 main 0 0 P_____________ AL152000 22.9375 -98.4425 HU 62 984 0 12 301
2000273N16277 2000 91 NA NA KEITH 2000-10-06 00:00:00 TS 23.2000 -99.0000 45 988 hurdat_atl main 0 0 O_____________ hurdat_atl AL152000 23.2000 -99.0000 TS 45 988 0 11 294
2000273N16277 2000 91 NA NA KEITH 2000-10-06 03:00:00 TS 23.3723 -99.5079 main 0 0 P_____________ AL152000 23.3723 -99.5079 TS 37 995 0 10 288
2000273N16277 2000 91 NA NA KEITH 2000-10-06 06:00:00 TS 23.5000 -100.000 30 1002 hurdat_atl main 0 0 O_____________ hurdat_atl AL152000 23.5000 -100.000 TD 30 1002 -1 9 287
2000273N16277 2000 91 NA NA KEITH 2000-10-06 09:00:00 TS 23.6429 -100.497 main 0 0 P_____________ AL152000 23.6429 -100.497 TD 25 1004 -1 10 288
2000273N16277 2000 91 NA NA KEITH 2000-10-06 12:00:00 TS 23.8000 -101.000 20 1007 hurdat_atl main 0 O_____________ hurdat_atl AL152000 23.8000 -101.000 TD 20 1007 -1 10 289

IBTrACS Databaseについて

本データベースは、米国NOAAが公開する1842年以降の世界の熱帯低気圧のベストトラックデータアーカイブInternational Best Track Archive for Climate Stewardship (IBTrACS)を、ウェブで閲覧しやすい形式に変換したものです。

最終更新日:2021-10-27